createdAt,value
2022-12-17T00:04:15.693Z,44.53
2022-12-17T00:09:32.851Z,41.35
2022-12-17T00:14:53.632Z,44.00
2022-12-17T00:20:10.746Z,39.88
2022-12-17T00:25:27.875Z,42.88
2022-12-17T00:30:47.516Z,60.80
2022-12-17T00:36:06.497Z,54.60
2022-12-17T00:41:23.456Z,50.13
2022-12-17T00:46:43.137Z,50.38
2022-12-17T00:52:00.257Z,49.55
2022-12-17T00:57:17.408Z,49.42
2022-12-17T01:02:37.203Z,60.08
2022-12-17T01:07:56.283Z,42.60
2022-12-17T01:13:13.362Z,45.53
2022-12-17T01:18:35.224Z,43.83
2022-12-17T01:23:52.240Z,46.75
2022-12-17T01:29:09.183Z,41.13
2022-12-17T01:34:28.832Z,38.90
2022-12-17T01:39:45.792Z,42.45
2022-12-17T01:45:03.992Z,49.03
2022-12-17T01:50:23.952Z,45.60
2022-12-17T01:55:40.938Z,51.00
2022-12-17T02:00:57.916Z,64.32
2022-12-17T02:06:21.882Z,53.47
2022-12-17T02:11:41.581Z,64.25
2022-12-17T02:17:00.047Z,44.25
2022-12-17T02:22:32.552Z,38.42
2022-12-17T02:27:52.280Z,31.15
2022-12-17T02:33:09.964Z,21.38
2022-12-17T02:38:33.729Z,17.92
2022-12-17T02:43:53.352Z,18.98
2022-12-17T02:49:10.409Z,17.08
2022-12-17T02:54:27.405Z,12.48
2022-12-17T02:59:49.301Z,6.90
2022-12-17T03:05:21.383Z,10.52
2022-12-17T03:10:43.256Z,12.70
2022-12-17T03:16:02.729Z,5.95
2022-12-17T03:21:19.921Z,7.45
2022-12-17T03:26:36.960Z,7.72
2022-12-17T03:31:56.660Z,8.45
2022-12-17T03:37:13.716Z,9.25
2022-12-17T03:42:30.728Z,9.45
2022-12-17T03:47:50.492Z,4.93
2022-12-17T03:53:07.467Z,7.15
2022-12-17T03:58:24.542Z,5.95
2022-12-17T04:03:44.312Z,5.13
2022-12-17T04:09:01.359Z,9.63
2022-12-17T04:14:18.401Z,9.30
2022-12-17T04:19:38.049Z,9.27
2022-12-17T04:24:55.079Z,9.98
2022-12-17T04:30:12.109Z,12.38
2022-12-17T04:35:31.834Z,13.98
2022-12-17T04:40:54.384Z,17.10
2022-12-17T04:46:11.605Z,9.77
2022-12-17T04:51:34.199Z,12.98
2022-12-17T04:56:51.347Z,20.75
2022-12-17T05:02:08.497Z,22.88
2022-12-17T05:07:28.180Z,26.73
2022-12-17T05:12:45.224Z,27.48
2022-12-17T05:18:02.228Z,31.90
2022-12-17T05:23:23.188Z,29.98
2022-12-17T05:28:40.160Z,41.92
2022-12-17T05:33:57.368Z,37.80
2022-12-17T05:39:17.170Z,44.33
2022-12-17T05:44:34.422Z,41.47
2022-12-17T05:49:51.400Z,47.42
2022-12-17T05:55:11.844Z,49.40
2022-12-17T06:00:29.440Z,59.45
2022-12-17T06:05:46.446Z,49.42
2022-12-17T06:11:06.144Z,52.30
2022-12-17T06:16:23.252Z,53.22
2022-12-17T06:21:40.421Z,50.35
2022-12-17T06:27:00.115Z,46.83
2022-12-17T06:32:17.109Z,48.80
2022-12-17T06:37:34.157Z,50.53
2022-12-17T06:42:53.872Z,57.90
2022-12-17T06:48:16.661Z,50.38
2022-12-17T06:53:33.825Z,40.95
2022-12-17T06:58:53.656Z,48.88
2022-12-17T07:04:10.510Z,49.13
2022-12-17T07:09:27.569Z,48.28
2022-12-17T07:14:47.268Z,50.22
2022-12-17T07:20:07.004Z,48.80
2022-12-17T07:25:24.159Z,55.03
2022-12-17T07:30:43.843Z,47.05
2022-12-17T07:36:00.980Z,52.30
2022-12-17T07:41:17.961Z,48.38
2022-12-17T07:46:37.621Z,53.70
2022-12-17T07:51:54.597Z,47.03
2022-12-17T07:57:11.565Z,52.33
2022-12-17T08:02:31.383Z,49.78
2022-12-17T08:07:48.570Z,48.40
2022-12-17T08:13:14.192Z,49.25
2022-12-17T08:18:34.213Z,40.35
2022-12-17T08:23:51.252Z,40.88
2022-12-17T08:29:08.228Z,45.35
2022-12-17T08:34:27.951Z,34.10
2022-12-17T08:39:44.937Z,36.78
2022-12-17T08:45:01.941Z,38.97
2022-12-17T08:50:22.113Z,35.55
2022-12-17T08:55:39.340Z,30.23
2022-12-17T09:00:57.245Z,35.83
2022-12-17T09:06:17.332Z,34.88
2022-12-17T09:11:34.345Z,35.53
2022-12-17T09:16:51.423Z,40.63
2022-12-17T09:22:11.188Z,33.38
2022-12-17T09:27:28.245Z,36.72
2022-12-17T09:32:46.125Z,30.52
2022-12-17T09:38:09.624Z,32.97
2022-12-17T09:43:32.085Z,34.15
2022-12-17T09:48:52.213Z,37.47
2022-12-17T09:54:11.991Z,35.70
2022-12-17T09:59:34.409Z,33.70
2022-12-17T10:04:53.350Z,38.25
2022-12-17T10:10:19.797Z,47.88
2022-12-17T10:15:36.917Z,50.42
2022-12-17T10:20:54.762Z,44.95
2022-12-17T10:26:14.417Z,26.45
2022-12-17T10:31:33.818Z,43.00
2022-12-17T10:36:50.958Z,28.48
2022-12-17T10:42:10.740Z,26.88
2022-12-17T10:47:28.826Z,40.13
2022-12-17T10:52:47.190Z,31.58
2022-12-17T10:58:07.656Z,25.83
2022-12-17T11:03:38.671Z,29.83
2022-12-17T11:09:02.469Z,33.50
2022-12-17T11:14:24.333Z,25.45
2022-12-17T11:19:44.652Z,29.33
2022-12-17T11:25:04.097Z,44.60
2022-12-17T11:30:30.746Z,36.55
2022-12-17T11:35:51.724Z,39.50
2022-12-17T11:41:10.260Z,31.45
2022-12-17T11:46:37.004Z,32.40
2022-12-17T11:51:56.608Z,28.30
2022-12-17T11:57:17.632Z,38.03
2022-12-17T12:02:44.297Z,37.15
2022-12-17T12:08:06.369Z,24.20
2022-12-17T12:13:28.777Z,27.33
2022-12-17T12:18:50.686Z,29.38
2022-12-17T12:24:14.914Z,31.25
2022-12-17T12:29:40.606Z,28.95
2022-12-17T12:35:00.925Z,26.23
2022-12-17T12:40:21.228Z,30.65
2022-12-17T12:45:46.882Z,33.05
2022-12-17T12:51:10.049Z,35.83
2022-12-17T12:56:42.036Z,31.92
2022-12-17T13:01:59.315Z,32.30
2022-12-17T13:07:06.956Z,37.42
2022-12-17T13:12:14.048Z,28.23
2022-12-17T13:17:28.492Z,33.80
2022-12-17T13:22:36.633Z,26.52
2022-12-17T13:27:42.589Z,26.05
2022-12-17T13:32:50.850Z,25.67
2022-12-17T13:38:02.127Z,34.67
2022-12-17T13:43:06.863Z,38.63
2022-12-17T13:48:20.176Z,39.97
2022-12-17T13:53:27.681Z,36.33
2022-12-17T13:58:33.195Z,47.08
2022-12-17T14:04:06.636Z,45.35
2022-12-17T14:09:05.905Z,31.15
2022-12-17T14:14:23.456Z,26.50
2022-12-17T14:19:29.566Z,30.60
2022-12-17T14:24:37.110Z,140.35
2022-12-17T14:29:49.422Z,33.85
2022-12-17T14:35:00.197Z,31.10
2022-12-17T14:40:08.919Z,48.50
2022-12-17T14:45:25.687Z,30.75
2022-12-17T14:50:32.493Z,30.63
2022-12-17T14:55:41.501Z,30.55
2022-12-17T15:00:47.528Z,35.97
2022-12-17T15:05:54.505Z,35.22
2022-12-17T15:11:05.075Z,35.42
2022-12-17T15:16:11.141Z,33.67
2022-12-17T15:21:23.090Z,31.85
2022-12-17T15:26:30.472Z,32.33
2022-12-17T15:31:35.861Z,34.03
2022-12-17T15:36:40.824Z,36.35
2022-12-17T15:42:00.449Z,38.60
2022-12-17T15:47:05.248Z,38.85
2022-12-17T15:52:10.173Z,39.05
2022-12-17T15:57:18.962Z,33.40
2022-12-17T16:02:23.945Z,39.90
2022-12-17T16:07:28.891Z,37.83
2022-12-17T16:12:36.521Z,47.65
2022-12-17T16:17:41.369Z,34.20
2022-12-17T16:22:46.478Z,31.33
2022-12-17T16:27:59.498Z,33.10
2022-12-17T16:33:04.431Z,26.38
2022-12-17T16:38:09.246Z,31.02
2022-12-17T16:43:16.745Z,31.00
2022-12-17T16:48:22.283Z,34.78
2022-12-17T16:53:27.191Z,33.13
2022-12-17T16:58:35.178Z,41.80
2022-12-17T17:03:42.101Z,38.97
2022-12-17T17:08:46.932Z,31.63
2022-12-17T17:13:54.858Z,29.73
2022-12-17T17:18:59.710Z,29.20
2022-12-17T17:24:07.264Z,33.40
2022-12-17T17:29:14.816Z,29.23
2022-12-17T17:34:19.570Z,41.45
2022-12-17T17:39:24.320Z,37.58
2022-12-17T17:44:33.024Z,36.63
2022-12-17T17:49:37.822Z,37.28
2022-12-17T17:54:42.759Z,40.50
2022-12-17T17:59:50.160Z,32.13
2022-12-17T18:04:55.083Z,35.97
2022-12-17T18:09:59.989Z,32.72
2022-12-17T18:15:16.854Z,42.65
2022-12-17T18:20:22.761Z,42.92
2022-12-17T18:25:28.872Z,34.60
2022-12-17T18:30:40.702Z,35.05
2022-12-17T18:35:45.537Z,45.67
2022-12-17T18:40:50.391Z,37.95
2022-12-17T18:46:06.684Z,30.48
2022-12-17T18:51:11.451Z,27.10
2022-12-17T18:56:31.678Z,30.30
2022-12-17T19:01:46.932Z,32.78
2022-12-17T19:06:53.830Z,31.73
2022-12-17T19:11:58.970Z,41.78
2022-12-17T19:17:06.421Z,50.65
2022-12-17T19:22:12.124Z,49.42
2022-12-17T19:27:16.848Z,29.77
2022-12-17T19:32:24.997Z,32.95
2022-12-17T19:37:29.748Z,36.72
2022-12-17T19:42:37.725Z,41.70
2022-12-17T19:47:45.616Z,46.20
2022-12-17T19:52:50.379Z,42.08
2022-12-17T19:57:56.921Z,40.78
2022-12-17T20:03:04.454Z,35.90
2022-12-17T20:08:09.744Z,43.70
2022-12-17T20:13:14.585Z,69.13
2022-12-17T20:18:22.067Z,54.10
2022-12-17T20:23:26.936Z,33.47
2022-12-17T20:28:31.937Z,75.78
2022-12-17T20:33:39.569Z,40.80
2022-12-17T20:38:44.621Z,42.08
2022-12-17T20:43:49.803Z,34.05
2022-12-17T20:48:57.096Z,46.90
2022-12-17T20:54:03.199Z,55.03
2022-12-17T20:59:08.853Z,43.20
2022-12-17T21:04:17.217Z,33.60
2022-12-17T21:09:23.013Z,35.28
2022-12-17T21:14:33.668Z,39.90
2022-12-17T21:19:43.147Z,36.25
2022-12-17T21:24:47.875Z,37.13
2022-12-17T21:29:52.856Z,44.95
2022-12-17T21:35:00.299Z,45.67
2022-12-17T21:40:05.044Z,57.10
2022-12-17T21:45:10.308Z,46.33
2022-12-17T21:50:18.059Z,41.53
2022-12-17T21:55:22.770Z,39.17
2022-12-17T22:00:28.105Z,36.40
2022-12-17T22:05:35.804Z,36.75
2022-12-17T22:10:49.043Z,30.85
2022-12-17T22:15:54.573Z,46.05
2022-12-17T22:21:03.148Z,36.45
2022-12-17T22:26:11.188Z,40.55
2022-12-17T22:31:28.605Z,37.72
2022-12-17T22:38:45.472Z,47.08
2022-12-17T22:44:43.046Z,37.75
2022-12-17T22:47:38.600Z,41.88
2022-12-17T22:52:45.982Z,37.65
2022-12-17T22:57:51.248Z,34.17
2022-12-17T23:02:56.819Z,48.75
2022-12-17T23:08:04.360Z,43.92
2022-12-17T23:13:09.063Z,48.45
2022-12-17T23:18:13.804Z,56.65
2022-12-17T23:23:21.283Z,69.35
2022-12-17T23:28:25.956Z,67.00
2022-12-17T23:33:30.640Z,73.13
2022-12-17T23:38:38.585Z,56.38
2022-12-17T23:43:43.492Z,45.65
2022-12-17T23:48:48.736Z,60.10
2022-12-17T23:53:56.192Z,79.55
2022-12-17T23:59:01.638Z,74.07
